createdAt,value
2018-04-17T00:01:17.451Z,101484.58
2018-04-17T00:03:43.252Z,101484.67
2018-04-17T00:06:09.056Z,101487.32
2018-04-17T00:08:34.857Z,101488.46
2018-04-17T00:11:00.652Z,101491.73
2018-04-17T00:13:26.455Z,101496.84
2018-04-17T00:15:52.248Z,101507.44
2018-04-17T00:18:18.047Z,101504.13
2018-04-17T00:20:43.856Z,101505.51
2018-04-17T00:23:09.656Z,101514.89
2018-04-17T00:25:35.464Z,101512.36
2018-04-17T00:28:01.297Z,101518.34
2018-04-17T00:30:27.182Z,101528.86
2018-04-17T00:32:53.029Z,101532.72
2018-04-17T00:35:18.893Z,101529.44
2018-04-17T00:37:45.520Z,101526.64
2018-04-17T00:40:11.317Z,101527.91
2018-04-17T00:42:37.936Z,101530.50
2018-04-17T00:45:04.715Z,101536.27
2018-04-17T00:47:30.524Z,101537.02
2018-04-17T00:49:57.337Z,101545.41
2018-04-17T00:52:24.183Z,101547.22
2018-04-17T00:54:50.004Z,101542.36
2018-04-17T00:57:16.700Z,101547.12
2018-04-17T00:59:42.500Z,101551.52
2018-04-17T01:02:09.292Z,101559.77
2018-04-17T01:04:36.112Z,101559.88
2018-04-17T01:07:02.777Z,101570.92
2018-04-17T01:09:29.496Z,101572.45
2018-04-17T01:11:56.222Z,101566.16
2018-04-17T01:14:22.856Z,101558.81
2018-04-17T01:16:49.645Z,101562.98
2018-04-17T01:19:15.496Z,101573.89
2018-04-17T01:21:41.300Z,101578.75
2018-04-17T01:24:07.105Z,101584.52
2018-04-17T01:26:32.908Z,101587.27
2018-04-17T01:28:58.708Z,101585.49
2018-04-17T01:31:24.510Z,101588.61
2018-04-17T01:33:50.348Z,101592.89
2018-04-17T01:36:16.169Z,101592.78
2018-04-17T01:38:41.976Z,101590.83
2018-04-17T01:41:07.775Z,101592.67
2018-04-17T01:43:33.592Z,101592.43
2018-04-17T01:45:59.442Z,101603.42
2018-04-17T01:48:25.260Z,101600.35
2018-04-17T01:50:51.065Z,101592.89
2018-04-17T01:53:16.875Z,101594.38
2018-04-17T01:55:42.680Z,101596.27
2018-04-17T01:58:08.481Z,101599.71
2018-04-17T02:00:34.285Z,101599.28
2018-04-17T02:03:00.687Z,101611.57
2018-04-17T02:05:26.497Z,101620.39
2018-04-17T02:07:52.409Z,101622.41
2018-04-17T02:10:18.215Z,101625.70
2018-04-17T02:12:44.044Z,101630.56
2018-04-17T02:15:09.853Z,101628.22
2018-04-17T02:17:35.720Z,101630.63
2018-04-17T02:20:01.608Z,101635.21
2018-04-17T02:22:27.419Z,101640.05
2018-04-17T02:24:53.520Z,101637.49
2018-04-17T02:27:19.329Z,101643.44
2018-04-17T02:29:45.133Z,101641.95
2018-04-17T02:32:11.181Z,101648.08
2018-04-17T02:34:36.983Z,101647.66
2018-04-17T02:37:02.801Z,101650.78
2018-04-17T02:39:28.751Z,101649.52
2018-04-17T02:41:54.565Z,101649.94
2018-04-17T02:44:20.361Z,101651.09
2018-04-17T02:46:46.245Z,101655.81
2018-04-17T02:49:12.049Z,101667.55
2018-04-17T02:51:37.887Z,101670.69
2018-04-17T02:54:03.684Z,101672.80
2018-04-17T02:56:29.489Z,101679.10
2018-04-17T02:58:55.293Z,101677.91
2018-04-17T03:01:21.099Z,101672.48
2018-04-17T03:03:46.903Z,101676.11
2018-04-17T03:06:12.709Z,101679.47
2018-04-17T03:08:38.549Z,101677.45
2018-04-17T03:11:04.348Z,101681.91
2018-04-17T03:13:30.224Z,101677.66
2018-04-17T03:15:56.030Z,101676.09
2018-04-17T03:18:21.835Z,101681.10
2018-04-17T03:20:47.673Z,101687.17
2018-04-17T03:23:13.480Z,101694.16
2018-04-17T03:25:39.320Z,101690.36
2018-04-17T03:28:05.140Z,101692.92
2018-04-17T03:30:30.950Z,101691.69
2018-04-17T03:32:56.797Z,101693.80
2018-04-17T03:35:22.600Z,101696.22
2018-04-17T03:37:48.404Z,101697.40
2018-04-17T03:40:14.201Z,101699.82
2018-04-17T03:42:40.004Z,101703.84
2018-04-17T03:45:05.800Z,101712.03
2018-04-17T03:47:31.612Z,101710.88
2018-04-17T03:49:57.413Z,101715.66
2018-04-17T03:52:23.304Z,101718.48
2018-04-17T03:54:49.118Z,101714.98
2018-04-17T03:57:14.945Z,101719.55
2018-04-17T03:59:40.753Z,101719.69
2018-04-17T04:02:06.557Z,101723.73
2018-04-17T04:04:32.404Z,101720.22
2018-04-17T04:06:58.205Z,101723.27
2018-04-17T04:09:24.009Z,101730.61
2018-04-17T04:11:49.818Z,101736.45
2018-04-17T04:14:15.621Z,101739.98
2018-04-17T04:16:47.645Z,101738.73
2018-04-17T04:19:19.594Z,101750.41
2018-04-17T04:21:51.804Z,101745.52
2018-04-17T04:24:23.843Z,101746.98
2018-04-17T04:26:49.644Z,101745.41
2018-04-17T04:29:15.849Z,101750.14
2018-04-17T04:31:41.670Z,101758.32
2018-04-17T04:34:07.489Z,101766.81
2018-04-17T04:36:33.403Z,101773.00
2018-04-17T04:38:59.381Z,101774.50
2018-04-17T04:41:25.196Z,101777.16
2018-04-17T04:43:50.997Z,101778.12
2018-04-17T04:46:16.805Z,101785.14
2018-04-17T04:48:42.612Z,101795.48
2018-04-17T04:51:08.432Z,101798.26
2018-04-17T04:53:34.237Z,101804.57
2018-04-17T04:56:00.118Z,101805.52
2018-04-17T04:58:25.928Z,101816.88
2018-04-17T05:00:52.199Z,101815.27
2018-04-17T05:03:18.128Z,101826.55
2018-04-17T05:05:44.118Z,101818.27
2018-04-17T05:08:10.039Z,101825.65
2018-04-17T05:10:35.965Z,101829.75
2018-04-17T05:13:01.771Z,101830.04
2018-04-17T05:15:27.597Z,101832.69
2018-04-17T05:17:53.429Z,101839.84
2018-04-17T05:20:19.237Z,101847.23
2018-04-17T05:22:45.064Z,101852.11
2018-04-17T05:25:10.864Z,101850.61
2018-04-17T05:27:36.673Z,101864.79
2018-04-17T05:30:02.479Z,101866.36
2018-04-17T05:32:28.285Z,101870.20
2018-04-17T05:34:54.089Z,101877.35
2018-04-17T05:37:19.897Z,101885.40
2018-04-17T05:39:45.701Z,101885.34
2018-04-17T05:42:11.525Z,101892.20
2018-04-17T05:44:37.333Z,101897.54
2018-04-17T05:47:03.132Z,101905.38
2018-04-17T05:49:28.957Z,101907.18
2018-04-17T05:51:54.766Z,101907.23
2018-04-17T05:54:20.596Z,101912.23
2018-04-17T05:56:46.405Z,101914.09
2018-04-17T05:59:12.248Z,101914.92
2018-04-17T06:01:38.072Z,101927.14
2018-04-17T06:04:03.877Z,101931.36
2018-04-17T06:06:29.720Z,101936.60
2018-04-17T06:08:55.525Z,101939.50
2018-04-17T06:11:21.333Z,101941.77
2018-04-17T06:13:47.201Z,101944.25
2018-04-17T06:16:12.976Z,101944.42
2018-04-17T06:18:38.780Z,101944.90
2018-04-17T06:21:04.609Z,101947.78
2018-04-17T06:23:30.417Z,101948.81
2018-04-17T06:25:56.225Z,101950.33
2018-04-17T06:28:22.031Z,101954.76
2018-04-17T06:30:47.858Z,101961.02
2018-04-17T06:33:13.693Z,101965.41
2018-04-17T06:35:39.537Z,101970.13
2018-04-17T06:38:05.345Z,101972.22
2018-04-17T06:40:31.177Z,101983.04
2018-04-17T06:42:56.976Z,101985.08
2018-04-17T06:45:22.781Z,101995.55
2018-04-17T06:47:48.582Z,101997.44
2018-04-17T06:50:14.385Z,102001.75
2018-04-17T06:52:40.200Z,102004.14
2018-04-17T06:55:06.021Z,102010.46
2018-04-17T06:57:31.829Z,102011.49
2018-04-17T06:59:57.659Z,102013.66
2018-04-17T07:02:23.465Z,102018.53
2018-04-17T07:04:49.318Z,102026.27
2018-04-17T07:07:15.122Z,102026.58
2018-04-17T07:09:40.925Z,102022.45
2018-04-17T07:12:06.730Z,102027.61
2018-04-17T07:14:32.544Z,102034.16
2018-04-17T07:16:58.352Z,102036.27
2018-04-17T07:19:24.220Z,102039.10
2018-04-17T07:21:50.025Z,102040.80
2018-04-17T07:24:15.833Z,102043.44
2018-04-17T07:26:41.654Z,102052.52
2018-04-17T07:29:07.469Z,102054.75
2018-04-17T07:31:33.431Z,102055.65
2018-04-17T07:33:59.137Z,102052.95
2018-04-17T07:36:24.949Z,102059.33
2018-04-17T07:38:50.761Z,102065.81
2018-04-17T07:41:16.589Z,102073.76
2018-04-17T07:43:42.422Z,102073.15
2018-04-17T07:46:08.229Z,102077.86
2018-04-17T07:48:40.238Z,102080.39
2018-04-17T07:51:06.049Z,102082.81
2018-04-17T07:53:31.884Z,102085.93
2018-04-17T07:55:57.691Z,102088.81
2018-04-17T07:58:23.501Z,102079.53
2018-04-17T08:00:49.309Z,102086.09
2018-04-17T08:03:15.143Z,102088.88
2018-04-17T08:05:40.956Z,102098.70
2018-04-17T08:08:06.767Z,102091.78
2018-04-17T08:10:32.579Z,102097.66
2018-04-17T08:12:58.425Z,102099.97
2018-04-17T08:15:24.236Z,102097.41
2018-04-17T08:17:50.077Z,102104.52
2018-04-17T08:20:15.924Z,102102.35
2018-04-17T08:22:41.877Z,102101.63
2018-04-17T08:25:07.684Z,102106.32
2018-04-17T08:27:34.312Z,102108.57
2018-04-17T08:30:00.153Z,102111.77
2018-04-17T08:32:26.004Z,102114.40
2018-04-17T08:34:51.812Z,102114.11
2018-04-17T08:37:17.649Z,102117.25
2018-04-17T08:39:43.464Z,102118.31
2018-04-17T08:42:09.305Z,102119.34
2018-04-17T08:44:35.112Z,102117.84
2018-04-17T08:47:00.957Z,102121.09
2018-04-17T08:49:26.765Z,102115.74
2018-04-17T08:51:52.573Z,102118.20
2018-04-17T08:54:18.380Z,102119.77
2018-04-17T08:56:44.190Z,102119.53
2018-04-17T08:59:10.036Z,102123.16
2018-04-17T09:01:35.849Z,102125.80
2018-04-17T09:04:01.693Z,102130.63
2018-04-17T09:06:27.516Z,102135.66
2018-04-17T09:08:53.353Z,102127.12
2018-04-17T09:11:19.190Z,102130.79
2018-04-17T09:13:44.998Z,102126.95
2018-04-17T09:16:10.844Z,102123.81
2018-04-17T09:18:36.668Z,102126.84
2018-04-17T09:21:02.528Z,102125.44
2018-04-17T09:23:28.401Z,102127.50
2018-04-17T09:25:54.213Z,102120.70
2018-04-17T09:28:20.020Z,102120.59
2018-04-17T09:30:45.824Z,102125.14
2018-04-17T09:33:11.658Z,102121.48
2018-04-17T09:35:37.473Z,102131.58
2018-04-17T09:38:03.301Z,102131.36
2018-04-17T09:40:29.149Z,102131.10
2018-04-17T09:42:54.964Z,102133.38
2018-04-17T09:45:20.798Z,102137.08
2018-04-17T09:47:46.633Z,102136.40
2018-04-17T09:50:12.477Z,102136.27
2018-04-17T09:52:38.317Z,102146.94
2018-04-17T09:55:04.185Z,102140.21
2018-04-17T09:57:30.034Z,102153.20
2018-04-17T09:59:55.897Z,102143.39
2018-04-17T10:02:21.711Z,102142.13
2018-04-17T10:04:47.541Z,102137.48
2018-04-17T10:07:13.368Z,102140.02
2018-04-17T10:09:39.177Z,102141.33
2018-04-17T10:12:05.021Z,102139.71
2018-04-17T10:14:30.921Z,102142.02
2018-04-17T10:16:56.764Z,102128.95
2018-04-17T10:19:22.656Z,102133.98
2018-04-17T10:21:48.502Z,102138.41
2018-04-17T10:24:14.313Z,102134.06
2018-04-17T10:26:40.125Z,102135.28
2018-04-17T10:29:05.934Z,102134.80
2018-04-17T10:31:31.766Z,102133.17
2018-04-17T10:33:57.576Z,102130.34
2018-04-17T10:36:23.385Z,102138.16
2018-04-17T10:38:49.350Z,102136.97
2018-04-17T10:41:15.229Z,102137.86
2018-04-17T10:43:41.041Z,102137.08
2018-04-17T10:46:06.858Z,102135.77
2018-04-17T10:48:32.698Z,102136.47
2018-04-17T10:50:58.505Z,102132.49
2018-04-17T10:53:24.317Z,102131.05
2018-04-17T10:55:50.124Z,102128.17
2018-04-17T10:58:15.945Z,102130.56
2018-04-17T11:00:41.785Z,102125.45
2018-04-17T11:03:07.592Z,102122.38
2018-04-17T11:05:33.409Z,102124.02
2018-04-17T11:07:59.277Z,102122.56
2018-04-17T11:10:25.118Z,102123.17
2018-04-17T11:12:50.973Z,102126.36
2018-04-17T11:15:16.784Z,102136.36
2018-04-17T11:17:42.588Z,102138.72
2018-04-17T11:20:08.398Z,102129.26
2018-04-17T11:22:34.210Z,102131.17
2018-04-17T11:25:00.013Z,102119.69
2018-04-17T11:27:25.829Z,102122.64
2018-04-17T11:29:51.644Z,102122.63
2018-04-17T11:32:17.457Z,102127.16
2018-04-17T11:34:43.295Z,102124.80
2018-04-17T11:37:09.101Z,102126.66
2018-04-17T11:39:34.911Z,102129.57
2018-04-17T11:42:00.721Z,102127.09
2018-04-17T11:44:26.536Z,102130.78
2018-04-17T11:46:52.349Z,102132.81
2018-04-17T11:49:18.193Z,102133.23
2018-04-17T11:51:44.005Z,102131.73
2018-04-17T11:54:09.867Z,102139.58
2018-04-17T11:56:35.681Z,102136.67
2018-04-17T11:59:01.519Z,102136.67
2018-04-17T12:01:27.783Z,102136.38
2018-04-17T12:03:53.633Z,102136.25
2018-04-17T12:06:19.489Z,102137.33
2018-04-17T12:08:45.372Z,102140.66
2018-04-17T12:11:11.323Z,102148.30
2018-04-17T12:13:37.180Z,102149.75
2018-04-17T12:16:03.012Z,102155.39
2018-04-17T12:18:28.828Z,102150.09
2018-04-17T12:20:54.633Z,102159.42
2018-04-17T12:23:20.447Z,102163.95
2018-04-17T12:25:46.334Z,102160.94
2018-04-17T12:28:12.149Z,102166.61
2018-04-17T12:30:37.959Z,102171.52
2018-04-17T12:33:03.801Z,102173.63
2018-04-17T12:35:29.640Z,102178.38
2018-04-17T12:37:55.465Z,102178.80
2018-04-17T12:40:21.277Z,102184.53
2018-04-17T12:42:47.090Z,102173.69
2018-04-17T12:45:12.901Z,102181.88
2018-04-17T12:47:38.753Z,102180.19
2018-04-17T12:50:04.569Z,102178.73
2018-04-17T12:52:30.381Z,102183.60
2018-04-17T12:54:56.288Z,102175.97
2018-04-17T12:57:22.889Z,102181.03
2018-04-17T12:59:48.703Z,102182.91
2018-04-17T13:02:14.541Z,102186.27
2018-04-17T13:04:40.448Z,102183.33
2018-04-17T13:07:06.297Z,102178.88
2018-04-17T13:09:32.108Z,102182.17
2018-04-17T13:11:57.912Z,102168.27
2018-04-17T13:14:23.764Z,102179.66
2018-04-17T13:16:49.577Z,102174.41
2018-04-17T13:19:15.412Z,102177.27
2018-04-17T13:21:41.257Z,102175.91
2018-04-17T13:24:07.125Z,102179.36
2018-04-17T13:26:32.960Z,102177.95
2018-04-17T13:28:59.911Z,102170.86
2018-04-17T13:31:25.764Z,102174.52
2018-04-17T13:33:51.574Z,102170.55
2018-04-17T13:36:17.412Z,102166.63
2018-04-17T13:38:43.228Z,102167.81
2018-04-17T13:41:09.042Z,102165.25
2018-04-17T13:43:34.868Z,102156.50
2018-04-17T13:46:01.476Z,102162.96
2018-04-17T13:48:27.301Z,102160.48
2018-04-17T13:50:53.112Z,102158.03
2018-04-17T13:53:18.929Z,102158.02
2018-04-17T13:55:44.743Z,102151.76
2018-04-17T13:58:10.672Z,102157.59
2018-04-17T14:00:36.488Z,102152.37
2018-04-17T14:03:02.365Z,102147.89
2018-04-17T14:05:28.202Z,102147.47
2018-04-17T14:07:54.136Z,102145.06
2018-04-17T14:10:20.085Z,102148.74
2018-04-17T14:12:47.489Z,102149.72
2018-04-17T14:15:13.396Z,102145.48
2018-04-17T14:17:39.210Z,102162.81
2018-04-17T14:20:05.017Z,102161.80
2018-04-17T14:22:30.822Z,102166.14
2018-04-17T14:24:56.637Z,102166.38
2018-04-17T14:27:22.448Z,102160.05
2018-04-17T14:29:48.261Z,102163.55
2018-04-17T14:32:14.073Z,102166.44
2018-04-17T14:34:39.881Z,102164.02
2018-04-17T14:37:05.721Z,102167.39
2018-04-17T14:39:31.536Z,102163.23
2018-04-17T14:41:57.345Z,102160.45
2018-04-17T14:44:23.153Z,102167.15
2018-04-17T14:46:48.980Z,102170.17
2018-04-17T14:49:14.797Z,102167.99
2018-04-17T14:51:40.605Z,102167.80
2018-04-17T14:54:06.408Z,102172.50
2018-04-17T14:56:32.212Z,102175.25
2018-04-17T14:58:58.054Z,102171.78
2018-04-17T15:01:23.909Z,102177.12
2018-04-17T15:03:49.737Z,102181.29
2018-04-17T15:06:15.553Z,102180.88
2018-04-17T15:08:41.365Z,102186.27
2018-04-17T15:11:07.171Z,102182.86
2018-04-17T15:13:32.998Z,102191.27
2018-04-17T15:15:58.807Z,102191.33
2018-04-17T15:18:24.612Z,102188.76
2018-04-17T15:20:50.452Z,102189.77
2018-04-17T15:23:16.260Z,102185.08
2018-04-17T15:25:42.068Z,102183.75
2018-04-17T15:28:07.963Z,102186.75
2018-04-17T15:30:33.840Z,102182.95
2018-04-17T15:32:59.650Z,102187.95
2018-04-17T15:35:25.461Z,102188.63
2018-04-17T15:37:51.272Z,102187.02
2018-04-17T15:40:17.105Z,102195.87
2018-04-17T15:42:42.913Z,102190.11
2018-04-17T15:45:08.720Z,102192.54
2018-04-17T15:47:34.532Z,102190.77
2018-04-17T15:50:00.436Z,102194.12
2018-04-17T15:52:26.357Z,102199.52
2018-04-17T15:54:52.167Z,102198.31
2018-04-17T15:57:18.013Z,102200.59
2018-04-17T15:59:43.833Z,102200.12
2018-04-17T16:02:09.773Z,102204.45
2018-04-17T16:04:35.624Z,102203.27
2018-04-17T16:07:01.456Z,102197.53
2018-04-17T16:09:27.269Z,102205.55
2018-04-17T16:11:53.110Z,102199.35
2018-04-17T16:14:18.935Z,102201.02
2018-04-17T16:16:44.793Z,102202.77
2018-04-17T16:19:10.654Z,102202.34
2018-04-17T16:21:36.466Z,102205.36
2018-04-17T16:24:02.302Z,102202.61
2018-04-17T16:26:28.114Z,102196.36
2018-04-17T16:28:53.915Z,102200.73
2018-04-17T16:31:19.754Z,102199.98
2018-04-17T16:33:45.597Z,102203.33
2018-04-17T16:36:11.497Z,102200.60
2018-04-17T16:38:37.304Z,102207.22
2018-04-17T16:41:03.200Z,102203.75
2018-04-17T16:43:29.001Z,102210.90
2018-04-17T16:45:54.813Z,102213.79
2018-04-17T16:48:20.625Z,102213.44
2018-04-17T16:50:47.451Z,102215.24
2018-04-17T16:53:13.265Z,102218.31
2018-04-17T16:55:39.102Z,102218.73
2018-04-17T16:58:04.915Z,102219.62
2018-04-17T17:03:26.314Z,102222.34
2018-04-17T17:05:52.124Z,102218.81
2018-04-17T17:08:17.969Z,102216.06
2018-04-17T17:10:43.796Z,102213.49
2018-04-17T17:13:09.640Z,102216.20
2018-04-17T17:15:35.446Z,102212.59
2018-04-17T17:18:01.302Z,102212.12
2018-04-17T17:20:27.157Z,102215.45
2018-04-17T17:22:53.017Z,102212.70
2018-04-17T17:25:18.833Z,102215.19
2018-04-17T17:27:44.677Z,102219.18
2018-04-17T17:30:10.493Z,102218.42
2018-04-17T17:32:36.383Z,102219.27
2018-04-17T17:35:02.209Z,102220.96
2018-04-17T17:37:28.978Z,102228.64
2018-04-17T17:39:54.979Z,102226.26
2018-04-17T17:42:20.793Z,102235.03
2018-04-17T17:44:46.776Z,102237.16
2018-04-17T17:47:12.609Z,102237.68
2018-04-17T17:49:39.474Z,102246.95
2018-04-17T17:52:05.317Z,102248.98
2018-04-17T17:54:31.295Z,102257.28
2018-04-17T17:56:57.146Z,102261.25
2018-04-17T17:59:23.027Z,102263.67
2018-04-17T18:01:48.846Z,102271.72
2018-04-17T18:04:14.679Z,102278.69
2018-04-17T18:06:40.535Z,102282.44
2018-04-17T18:09:06.349Z,102293.22
2018-04-17T18:11:32.233Z,102296.36
2018-04-17T18:13:58.082Z,102298.18
2018-04-17T18:16:23.904Z,102303.55
2018-04-17T18:18:49.824Z,102302.23
2018-04-17T18:21:15.669Z,102308.17
2018-04-17T18:23:41.645Z,102311.50
2018-04-17T18:26:07.497Z,102317.71
2018-04-17T18:28:33.321Z,102313.99
2018-04-17T18:30:59.222Z,102320.77
2018-04-17T18:33:25.061Z,102319.69
2018-04-17T18:35:50.889Z,102331.13
2018-04-17T18:38:16.740Z,102331.13
2018-04-17T18:40:42.591Z,102340.62
2018-04-17T18:43:08.406Z,102343.79
2018-04-17T18:45:34.231Z,102342.30
2018-04-17T18:48:00.049Z,102350.14
2018-04-17T18:50:25.857Z,102349.97
2018-04-17T18:52:51.679Z,102352.04
2018-04-17T18:55:17.489Z,102358.19
2018-04-17T18:57:43.308Z,102355.05
2018-04-17T19:00:09.263Z,102361.05
2018-04-17T19:02:35.078Z,102359.20
2018-04-17T19:05:00.946Z,102355.60
2018-04-17T19:07:26.802Z,102358.61
2018-04-17T19:09:52.653Z,102354.52
2018-04-17T19:12:18.473Z,102352.33
2018-04-17T19:14:44.317Z,102352.20
2018-04-17T19:17:10.295Z,102351.98
2018-04-17T19:19:36.105Z,102358.36
2018-04-17T19:22:01.929Z,102363.28
2018-04-17T19:24:27.784Z,102366.33
2018-04-17T19:26:55.028Z,102366.08
2018-04-17T19:29:20.968Z,102367.66
2018-04-17T19:31:46.828Z,102373.66
2018-04-17T19:34:12.804Z,102376.30
2018-04-17T19:36:38.777Z,102373.93
2018-04-17T19:39:04.762Z,102378.82
2018-04-17T19:41:30.764Z,102377.88
2018-04-17T19:43:56.656Z,102379.34
2018-04-17T19:46:22.626Z,102379.77
2018-04-17T19:48:48.925Z,102378.39
2018-04-17T19:51:14.889Z,102384.22
2018-04-17T19:53:41.045Z,102385.70
2018-04-17T19:56:06.986Z,102384.06
2018-04-17T19:58:32.937Z,102388.14
2018-04-17T20:00:58.750Z,102389.84
2018-04-17T20:03:24.646Z,102393.34
2018-04-17T20:05:50.562Z,102404.31
2018-04-17T20:08:16.515Z,102401.44
2018-04-17T20:10:42.417Z,102406.73
2018-04-17T20:13:08.326Z,102408.14
2018-04-17T20:15:34.140Z,102409.72
2018-04-17T20:17:59.966Z,102412.30
2018-04-17T20:20:25.906Z,102417.38
2018-04-17T20:22:51.761Z,102419.50
2018-04-17T20:25:17.707Z,102421.38
2018-04-17T20:27:43.665Z,102420.67
2018-04-17T20:30:09.506Z,102422.48
2018-04-17T20:32:35.322Z,102420.91
2018-04-17T20:35:01.133Z,102421.28
2018-04-17T20:37:27.156Z,102416.56
2018-04-17T20:39:53.098Z,102424.28
2018-04-17T20:42:18.997Z,102426.77
2018-04-17T20:44:44.837Z,102428.00
2018-04-17T20:47:10.732Z,102431.28
2018-04-17T20:49:36.540Z,102423.55
2018-04-17T20:52:02.680Z,102429.91
2018-04-17T20:54:28.685Z,102423.91
2018-04-17T20:56:54.681Z,102430.16
2018-04-17T20:59:20.518Z,102423.55
2018-04-17T21:01:46.481Z,102424.02
2018-04-17T21:04:12.290Z,102424.08
2018-04-17T21:06:38.247Z,102433.98
2018-04-17T21:09:04.172Z,102434.73
2018-04-17T21:11:30.124Z,102433.92
2018-04-17T21:13:56.040Z,102434.19
2018-04-17T21:16:21.973Z,102441.70
2018-04-17T21:18:47.897Z,102440.45
2018-04-17T21:21:13.706Z,102444.61
2018-04-17T21:23:39.525Z,102445.89
2018-04-17T21:26:05.337Z,102446.73
2018-04-17T21:28:31.180Z,102453.14
2018-04-17T21:30:57.137Z,102457.16
2018-04-17T21:33:23.057Z,102461.98
2018-04-17T21:35:49.018Z,102471.39
2018-04-17T21:38:14.828Z,102471.41
2018-04-17T21:40:42.834Z,102467.36
2018-04-17T21:43:08.697Z,102462.28
2018-04-17T21:45:34.619Z,102463.02
2018-04-17T21:48:00.441Z,102464.30
2018-04-17T21:50:26.273Z,102462.09
2018-04-17T21:52:52.213Z,102463.83
2018-04-17T21:55:18.026Z,102464.04
2018-04-17T21:57:43.920Z,102466.54
2018-04-17T22:00:09.735Z,102459.00
2018-04-17T22:02:35.552Z,102462.56
2018-04-17T22:05:01.369Z,102471.22
2018-04-17T22:07:27.173Z,102465.73
2018-04-17T22:09:52.981Z,102471.33
2018-04-17T22:12:18.803Z,102474.29
2018-04-17T22:14:44.617Z,102472.08
2018-04-17T22:17:10.537Z,102474.93
2018-04-17T22:19:36.366Z,102482.34
2018-04-17T22:22:02.204Z,102484.98
2018-04-17T22:24:28.034Z,102484.25
2018-04-17T22:26:53.895Z,102491.05
2018-04-17T22:29:19.729Z,102495.46
2018-04-17T22:31:45.540Z,102498.78
2018-04-17T22:34:11.353Z,102490.66
2018-04-17T22:36:37.183Z,102493.83
2018-04-17T22:39:03.084Z,102495.38
2018-04-17T22:41:28.942Z,102495.65
2018-04-17T22:43:54.798Z,102498.64
2018-04-17T22:46:20.662Z,102503.56
2018-04-17T22:48:46.489Z,102503.83
2018-04-17T22:51:12.314Z,102511.34
2018-04-17T22:53:38.141Z,102513.67
2018-04-17T22:56:04.012Z,102519.86
2018-04-17T22:58:29.842Z,102518.54
2018-04-17T23:00:55.665Z,102519.22
2018-04-17T23:03:21.474Z,102523.50
2018-04-17T23:05:47.286Z,102521.82
2018-04-17T23:08:13.099Z,102522.85
2018-04-17T23:10:38.942Z,102523.80
2018-04-17T23:13:04.760Z,102523.38
2018-04-17T23:15:30.570Z,102521.34
2018-04-17T23:17:56.381Z,102513.37
2018-04-17T23:20:22.192Z,102522.41
2018-04-17T23:22:48.034Z,102515.48
2018-04-17T23:25:13.906Z,102520.23
2018-04-17T23:27:39.724Z,102516.11
2018-04-17T23:30:05.539Z,102510.00
2018-04-17T23:32:31.465Z,102513.83
2018-04-17T23:34:57.465Z,102507.32
2018-04-17T23:37:23.283Z,102506.74
2018-04-17T23:39:49.104Z,102504.54
2018-04-17T23:42:14.921Z,102499.84
2018-04-17T23:44:40.747Z,102505.26
2018-04-17T23:47:06.560Z,102503.57
2018-04-17T23:49:32.373Z,102506.12
2018-04-17T23:51:58.193Z,102510.95
2018-04-17T23:54:24.037Z,102523.11
2018-04-17T23:56:49.853Z,102525.28
2018-04-17T23:59:15.668Z,102521.59
